Englewood, Indiana
Current Conditions -  °F | °C
As of 9:53 PM on Tuesday 25 Nov 2014 (Local Time) from KBMG Reporting Station
Overcast Overcast  
Wind Chill: 25°   Ceiling: 1600
Heat Index: 30°   Visibility: 10mi
Dew Point: 24°   Wind: 5mph
Humidity: 79%   Direction: NA
Pressure: 30.2"   Gusts: NA
Location:  38.8737°N, 86.4563°W
Report Text: KBMG 260253Z VRB04KT 10SM OVC016 M01/M04 A3020 RMK AO2 SLP233 T10111044 51008
Loading
Personal Weather Stations






























Interactive Weather Map New forecast layout! Learn more

10-Day Weather Forecast

Advertisements
Track Severe Weather on mobile